Latest Weather Observations for Mount Hotham Airport

IDV60801

Issued at 7:31 am EST Wednesday 29 July 2015 (issued every 30 minutes, with the page automatically refreshed every 10 minutes)

About weather observations | Map of weather stations | Latest weather observations for VIC | Other Formats
Station Details ID: 083055 Name: MOUNT HOTHAM AIRPORT Lat: -37.05 Lon: 147.33 Height: 1295.4 m
Data from the previous 72 hours. | See also: Recent months at Mount Hotham Airport
Date/Time
EST
Temp
°C
App
Temp
°C
Dew
Point
Rel
Hum
%
Delta-T
°C
Wind Press
QNH
hPa
Press
MSL
hPa
Rain
since 9 am
mm
Dir
 
Spd
km/h
Gust
km/h
Spd
kts
Gust
kts
29/07:30am -3.3 -6.9 -4.0 95 0.1 NW 6 7 3 4 1031.1 - 0.0
29/07:12am -3.6 -7.5 -4.4 94 0.1 NNW 7 7 4 4 1030.9 - 0.0
29/07:02am -2.9 -6.7 -3.6 95 0.1 N 7 11 4 6 1030.8 - 0.0
29/07:00am -2.8 -6.5 -3.3 96 0.0 N 7 11 4 6 1030.8 - 0.0
29/06:30am -3.7 -8.0 -4.5 94 0.1 NNW 9 11 5 6 1030.6 - 0.0
29/06:25am -2.7 -7.2 -3.2 96 0.1 NNW 11 15 6 8 1030.5 - 0.0
29/06:08am -2.6 -6.1 -3.0 97 0.0 NNW 6 9 3 5 1030.5 - 0.0
29/06:00am -3.3 -7.1 -3.8 96 0.0 NNW 7 9 4 5 1030.5 1035.1 0.0
29/05:30am -3.7 -7.5 -4.0 98 -0.1 NW 7 7 4 4 1030.3 - 0.0
29/05:00am -3.6 -7.4 -3.9 98 -0.1 NNW 7 9 4 5 1030.4 - 0.0
29/04:30am -3.9 -7.8 -4.3 97 0.0 NNW 7 9 4 5 1030.4 - 0.0
29/04:00am -1.8 -4.8 -1.9 99 -0.1 NNW 4 6 2 3 1030.1 - 0.0
29/03:30am -3.9 -7.6 -4.3 97 0.0 NNW 6 6 3 3 1030.3 - 0.0
29/03:00am -3.6 -7.2 -3.7 99 -0.1 NW 6 7 3 4 1030.6 1035.2 0.0
29/02:30am -4.0 -7.7 -4.1 99 -0.1 NNW 6 6 3 3 1031.1 - 0.0
29/02:00am -3.0 -6.7 -3.1 99 -0.1 NNW 7 7 4 4 1031.3 - 0.0
29/01:30am -3.7 -6.9 -3.8 99 -0.1 NNW 4 6 2 3 1031.4 - 0.0
29/01:00am -3.8 -7.4 -3.9 99 -0.1 NNW 6 7 3 4 1031.4 - 0.0
29/12:30am -2.1 -5.1 -2.2 99 -0.1 WNW 4 4 2 2 1031.6 - 0.0
29/12:00am -3.1 -6.7 -3.4 98 0.0 NNW 6 7 3 4 1031.7 1036.4 0.0
 
Date/Time
EST
Temp
°C
App
Temp
°C
Dew
Point
Rel
Hum
%
Delta-T
°C
Wind Press
QNH
hPa
Press
MSL
hPa
Rain
since 9 am
mm
Dir
 
Spd
km/h
Gust
km/h
Spd
kts
Gust
kts
28/11:30pm -3.1 -6.7 -3.4 98 0.0 NNW 6 7 3 4 1031.7 - 0.0
28/11:00pm -2.8 -6.3 -3.2 97 0.0 NNW 6 7 3 4 1031.7 - 0.0
28/10:30pm -2.3 -5.8 -2.8 96 0.1 NW 6 7 3 4 1031.7 - 0.0
28/10:00pm -1.6 -5.2 -2.3 95 0.2 NW 7 7 4 4 1031.8 - 0.0
28/09:30pm -0.4 -3.7 -1.2 94 0.3 WNW 6 6 3 3 1031.8 - 0.0
28/09:00pm 0.1 -3.3 -0.6 95 0.3 NW 7 9 4 5 1032.0 1036.6 0.0
28/08:30pm 0.2 -2.6 -0.1 98 0.1 WSW 4 6 2 3 1032.2 - 0.0
28/08:00pm 0.0 -2.8 -0.3 98 0.1 W 4 6 2 3 1032.0 - 0.0
28/07:30pm -0.3 -3.5 -0.6 98 0.1 W 6 7 3 4 1032.1 - 0.0
28/07:00pm -0.8 -4.1 -1.4 96 0.2 W 6 9 3 5 1031.6 - 0.0
28/06:30pm -1.3 -4.7 -2.1 94 0.2 WNW 6 7 3 4 1031.5 - 0.0
28/06:00pm -0.6 -4.2 -1.9 91 0.5 W 7 9 4 5 1031.2 1035.8 0.0
28/05:30pm 0.8 -2.7 -1.4 85 0.9 WNW 7 7 4 4 1030.9 - 0.0
28/05:00pm 2.5 -1.0 -1.5 75 1.6 WNW 7 11 4 6 1030.8 - 0.0
28/04:30pm 4.4 -0.2 -1.0 68 2.2 W 13 17 7 9 1030.8 - 0.0
28/04:00pm 4.6 0.4 -0.8 68 2.2 W 11 15 6 8 1030.7 - 0.0
28/03:30pm 4.2 -0.1 -1.6 66 2.3 WSW 11 15 6 8 1030.6 - 0.0
28/03:00pm 5.9 0.9 -1.0 61 2.8 WNW 15 22 8 12 1030.5 1035.1 0.0
28/02:30pm 6.1 1.4 -1.5 58 3.1 SW 13 22 7 12 1030.5 - 0.0
28/02:00pm 5.4 1.1 -1.3 62 2.7 WSW 11 20 6 11 1030.3 - 0.0
28/01:30pm 6.0 1.4 -0.9 61 2.8 WSW 13 32 7 17 1030.7 - 0.0
28/01:00pm 6.8 1.7 0.7 65 2.6 WNW 17 24 9 13 1030.7 - 0.0
28/12:30pm 5.5 1.5 0.5 70 2.1 SSW 11 17 6 9 1031.1 - 0.0
28/12:00pm 4.8 0.9 0.9 76 1.6 WSW 11 20 6 11 1031.6 1036.3 0.0
28/11:30am 4.0 -0.4 0.2 76 1.6 SW 13 20 7 11 1031.8 - 0.0
28/11:00am 4.1 0.6 1.0 80 1.3 SW 9 13 5 7 1032.1 - 0.0
28/10:30am 3.0 -2.2 0.1 81 1.2 SW 17 20 9 11 1032.1 - 0.0
28/10:00am 3.5 -0.4 0.9 83 1.1 SW 11 19 6 10 1032.0 - 0.0
28/09:30am 2.9 -1.1 0.6 85 0.9 SW 11 22 6 12 1031.7 - 0.0
28/09:00am 2.3 -1.3 0.5 88 0.7 WSW 9 15 5 8 1031.4 1036.0 0.0
28/08:30am 1.8 -1.8 0.5 91 0.5 WSW 9 15 5 8 1031.2 - 0.0
28/08:00am 1.6 -1.0 0.7 94 0.4 W 4 6 2 3 1030.8 - 0.0
28/07:30am 1.2 -2.1 0.3 94 0.4 WNW 7 11 4 6 1030.6 - 0.0
28/07:00am 1.2 -1.5 0.2 93 0.4 W 4 7 2 4 1030.3 - 0.0
28/06:30am 1.5 -1.6 0.3 92 0.5 W 6 13 3 7 1029.7 - 0.0
28/06:00am 1.3 -1.5 -0.2 90 0.6 W 4 7 2 4 1029.5 1034.0 0.0
28/05:30am 1.4 -1.8 -0.4 88 0.7 WNW 6 9 3 5 1029.1 - 0.0
28/05:00am 1.2 -2.2 -0.4 89 0.6 WSW 7 15 4 8 1028.9 - 0.0
28/04:30am 0.9 -2.6 -1.0 87 0.7 W 7 17 4 9 1028.3 - 0.0
28/04:00am 0.9 -3.0 -1.3 85 0.8 W 9 19 5 10 1028.2 - 0.0
28/03:30am 0.8 -3.1 -1.4 85 0.9 WSW 9 24 5 13 1028.1 - 0.0
28/03:00am 1.0 -2.9 -1.6 83 1.0 W 9 15 5 8 1028.1 1032.6 0.0
28/02:30am 0.8 -3.5 -1.8 83 1.0 W 11 20 6 11 1028.2 - 0.0
28/02:27am 0.6 -4.1 -1.9 83 1.0 W 13 20 7 11 1028.2 - 0.0
28/02:09am 0.5 -3.5 -2.0 83 1.0 W 9 13 5 7 1028.3 - 0.0
28/02:00am 0.3 -3.7 -2.2 83 1.0 W 9 15 5 8 1028.2 - 0.0
28/01:30am 0.2 -3.5 -2.5 82 1.0 W 7 13 4 7 1027.9 - 0.0
28/01:00am 0.4 -3.0 -2.1 83 1.0 W 6 11 3 6 1027.9 - 0.0
28/12:30am -0.1 -3.8 -2.5 84 0.9 WNW 7 11 4 6 1027.7 - 0.0
28/12:00am -0.3 -5.1 -2.8 83 0.9 W 13 20 7 11 1027.4 1031.9 0.0
 
Date/Time
EST
Temp
°C
App
Temp
°C
Dew
Point
Rel
Hum
%
Delta-T
°C
Wind Press
QNH
hPa
Press
MSL
hPa
Rain
since 9 am
mm
Dir
 
Spd
km/h
Gust
km/h
Spd
kts
Gust
kts
27/11:30pm -0.1 -4.2 -3.0 81 1.1 W 9 17 5 9 1027.7 - 0.0
27/11:00pm 0.0 -4.1 -3.0 80 1.1 W 9 22 5 12 1027.7 - 0.0
27/10:30pm 0.3 -4.2 -3.1 78 1.3 W 11 20 6 11 1027.8 - 0.0
27/10:00pm 0.0 -4.5 -3.5 77 1.3 W 11 22 6 12 1027.5 - 0.0
27/09:30pm -0.2 -4.7 -3.2 80 1.1 W 11 20 6 11 1027.4 - 0.0
27/09:00pm -0.1 -4.6 -3.3 79 1.1 W 11 20 6 11 1027.3 1031.8 0.0
27/08:30pm 0.4 -4.8 -3.0 78 1.3 W 15 30 8 16 1027.3 - 0.0
27/08:00pm 0.7 -4.5 -3.0 76 1.4 WSW 15 26 8 14 1027.0 - 0.0
27/07:30pm 0.5 -5.1 -2.5 80 1.1 W 17 26 9 14 1026.7 - 0.0
27/07:00pm 0.2 -5.3 -2.0 85 0.8 W 17 26 9 14 1026.5 - 0.0
27/06:30pm 0.5 -4.7 -2.9 78 1.3 WSW 15 26 8 14 1026.1 - 0.0
27/06:00pm 0.9 -4.2 -2.1 80 1.2 W 15 32 8 17 1025.9 1030.4 0.0
27/05:30pm 0.3 -4.1 -2.1 84 0.9 W 11 20 6 11 1025.4 - 0.0
27/05:11pm 0.6 -3.3 -1.3 87 0.8 WSW 9 17 5 9 1025.3 - 0.0
27/05:00pm 0.5 -4.1 -1.4 87 0.8 W 13 19 7 10 1025.2 - 0.0
27/04:51pm 0.7 -4.0 -1.8 83 1.0 W 13 26 7 14 1025.0 - 0.0
27/04:30pm 1.3 -3.8 -1.8 80 1.2 W 15 24 8 13 1024.7 - 0.0
27/04:00pm 1.9 -4.0 -2.2 74 1.6 W 19 32 10 17 1024.4 - 0.0
27/03:30pm 2.2 -3.3 -1.9 74 1.6 W 17 26 9 14 1024.1 - 0.0
27/03:00pm 2.8 -4.0 -1.7 72 1.7 W 24 35 13 19 1023.6 1027.9 0.0
27/02:45pm 2.8 -2.9 -0.5 79 1.3 WSW 19 28 10 15 1023.7 - 0.0
27/02:34pm 1.8 -4.2 -1.6 78 1.3 W 20 30 11 16 1023.8 - 0.0
27/02:30pm 2.3 -3.5 -1.8 74 1.6 W 19 30 10 16 1023.8 - 0.0
27/02:00pm 2.3 -3.2 -1.8 74 1.6 W 17 28 9 15 1023.5 - 0.0
27/01:41pm 2.4 -3.0 -1.2 77 1.4 W 17 28 9 15 1023.6 - 0.0
27/01:30pm 2.3 -2.6 -0.4 82 1.1 W 15 30 8 16 1023.7 - 0.0
27/01:25pm 1.8 -3.2 -1.1 81 1.1 WSW 15 30 8 16 1023.6 - 0.0
27/01:00pm 2.1 -2.0 -0.5 83 1.0 WSW 11 22 6 12 1023.8 - 0.0
27/12:30pm 2.5 -3.3 -1.5 75 1.6 WSW 19 28 10 15 1023.8 - 0.0
27/12:00pm 1.9 -4.5 -1.9 76 1.4 WSW 22 35 12 19 1023.9 1028.3 0.0
27/11:30am 2.0 -4.1 -2.3 73 1.6 SW 20 35 11 19 1023.9 - 0.0
27/11:00am 2.1 -3.9 -1.9 75 1.5 WSW 20 39 11 21 1023.7 - 0.0
27/10:30am 1.1 -4.9 -3.0 74 1.6 WSW 19 35 10 19 1023.5 - 0.0
27/10:00am 0.8 -5.2 -3.1 75 1.5 WSW 19 30 10 16 1023.0 - 0.0
27/09:30am 0.4 -4.9 -3.7 74 1.5 WSW 15 33 8 18 1022.7 - 0.0
27/09:00am 0.0 -7.0 -3.7 76 1.3 WSW 24 41 13 22 1022.2 1026.5 0.8
27/08:30am -0.6 -7.3 -4.1 77 1.2 WSW 22 39 12 21 1021.6 - 0.8
27/08:00am -1.3 -7.5 -4.8 77 1.1 WSW 19 43 10 23 1021.2 - 0.8
27/07:30am -2.0 -7.9 -5.3 78 1.0 WSW 17 28 9 15 1020.7 - 0.8
27/07:00am -2.1 -6.5 -5.4 78 1.0 W 9 22 5 12 1020.4 - 0.8
27/06:58am -2.1 -6.8 -5.4 78 1.0 W 11 22 6 12 1020.4 - 0.8
27/06:36am -2.2 -6.9 -5.5 78 1.0 W 11 32 6 17 1020.2 - 0.8
27/06:30am -2.0 -6.3 -5.1 79 1.0 W 9 19 5 10 1020.2 - 0.8
27/06:00am -2.0 -7.9 -5.3 78 1.0 W 17 32 9 17 1019.7 1023.9 0.8
27/05:30am -2.2 -7.3 -5.3 79 0.9 W 13 22 7 12 1019.4 - 0.8
27/05:00am -2.5 -8.4 -5.5 80 0.9 WNW 17 26 9 14 1019.0 - 0.8
27/04:30am -2.4 -6.7 -5.2 81 0.8 WNW 9 17 5 9 1018.8 - 0.8
27/04:00am -2.0 -6.3 -5.0 80 0.9 NW 9 17 5 9 1018.6 - 0.8
27/03:30am -2.3 -7.8 -5.3 80 0.9 WNW 15 28 8 15 1018.1 - 0.8
27/03:00am -2.3 -8.6 -5.6 78 1.0 W 19 32 10 17 1018.1 1022.3 0.8
27/02:30am -2.0 -8.4 -5.3 78 1.0 W 20 32 11 17 1018.0 - 0.8
27/02:00am -2.0 -8.4 -5.0 80 0.9 W 20 35 11 19 1017.8 - 0.8
27/01:30am -2.0 -7.8 -5.1 79 1.0 WNW 17 28 9 15 1017.8 - 0.8
27/01:00am -1.9 -8.1 -5.0 79 1.0 W 19 32 10 17 1017.4 - 0.8
27/12:30am -2.1 -7.9 -4.9 81 0.9 W 17 30 9 16 1017.1 - 0.8
27/12:00am -2.1 -8.5 -5.1 80 0.9 WNW 20 33 11 18 1016.9 1021.0 0.8
 
Date/Time
EST
Temp
°C
App
Temp
°C
Dew
Point
Rel
Hum
%
Delta-T
°C
Wind Press
QNH
hPa
Press
MSL
hPa
Rain
since 9 am
mm
Dir
 
Spd
km/h
Gust
km/h
Spd
kts
Gust
kts
26/11:30pm -2.0 -8.8 -5.3 78 1.0 W 22 35 12 19 1016.9 - 0.8
26/11:00pm -2.3 -9.9 -5.4 79 0.9 WNW 26 43 14 23 1016.5 - 0.8
26/10:35pm -2.1 -10.1 -5.6 77 1.1 W 28 46 15 25 1016.3 - 0.8
26/10:32pm -2.0 -10.0 -5.5 77 1.1 W 28 46 15 25 1016.2 - 0.8
26/10:30pm -2.1 -9.7 -5.4 78 1.0 W 26 39 14 21 1016.3 - 0.8
26/10:25pm -2.2 -10.6 -5.5 78 1.0 W 30 48 16 26 1016.3 - 0.8
26/10:21pm -2.1 -10.5 -5.6 77 1.1 W 30 48 16 26 1016.2 - 0.8
26/10:19pm -2.0 -10.8 -5.7 76 1.1 W 32 48 17 26 1016.2 - 0.8
26/10:17pm -2.0 -10.4 -5.5 77 1.1 W 30 48 16 26 1016.1 - 0.8
26/10:07pm -1.9 -10.9 -5.7 75 1.2 W 33 46 18 25 1016.1 - 0.8
26/10:00pm -1.9 -10.3 -5.6 76 1.2 W 30 44 16 24 1015.9 - 0.8
26/09:51pm -1.8 -9.7 -5.1 78 1.0 W 28 46 15 25 1016.0 - 0.8
26/09:48pm -1.9 -9.4 -5.0 79 1.0 W 26 43 14 23 1015.9 - 0.8
26/09:31pm -1.7 -9.6 -5.0 78 1.0 W 28 46 15 25 1015.6 - 0.8
26/09:30pm -1.9 -9.5 -5.2 78 1.0 W 26 46 14 25 1015.5 - 0.8
26/09:29pm -1.8 -9.4 -5.1 78 1.0 W 26 46 14 25 1015.4 - 0.8
26/09:00pm -1.7 -9.6 -5.0 78 1.0 W 28 46 15 25 1015.2 1019.3 0.8
26/08:57pm -1.7 -8.5 -5.0 78 1.0 W 22 43 12 23 1015.3 - 0.8
26/08:38pm -1.7 -10.1 -5.5 75 1.2 WNW 30 52 16 28 1014.9 - 0.8
26/08:30pm -1.6 -10.5 -5.1 77 1.1 WNW 33 56 18 30 1014.8 - 0.8
26/08:00pm -1.5 -10.2 -5.3 75 1.2 W 32 52 17 28 1015.1 - 0.8
26/07:30pm -1.6 -9.9 -5.3 76 1.2 W 30 48 16 26 1014.8 - 0.8
26/07:01pm -1.7 -10.5 -6.1 72 1.4 WNW 32 54 17 29 1014.0 - 0.8
26/07:00pm -1.7 -10.5 -5.9 73 1.3 WNW 32 48 17 26 1014.0 - 0.8
26/06:45pm -1.9 -10.3 -5.9 74 1.2 W 30 57 16 31 1014.0 - 0.8
26/06:30pm -2.0 -10.8 -6.2 73 1.3 W 32 46 17 25 1013.8 - 0.8
26/06:24pm -1.9 -10.0 -6.3 72 1.4 W 28 46 15 25 1013.8 - 0.8
26/06:13pm -1.8 -10.2 -6.0 73 1.3 W 30 50 16 27 1013.7 - 0.8
26/06:08pm -2.0 -10.8 -5.8 75 1.2 W 32 46 17 25 1013.5 - 0.8
26/06:00pm -1.8 -11.1 -5.8 74 1.3 W 35 59 19 32 1013.4 1017.4 0.8
26/05:30pm -1.8 -10.6 -5.8 74 1.3 WNW 32 50 17 27 1012.6 - 0.8
26/05:20pm -2.1 -10.5 -5.7 76 1.1 W 30 50 16 27 1012.5 - 0.8
26/05:00pm -2.1 -10.9 -5.9 75 1.2 W 32 48 17 26 1012.5 - 0.8
26/04:36pm -1.8 -10.5 -5.3 77 1.1 W 32 59 17 32 1012.1 - 0.8
26/04:30pm -1.6 -10.5 -5.4 75 1.2 WNW 33 59 18 32 1012.0 - 0.8
26/04:23pm -1.3 -9.4 -3.5 85 0.7 WNW 30 52 16 28 1012.0 - 0.8
26/04:00pm -1.4 -7.6 -3.0 89 0.5 WNW 20 35 11 19 1011.7 - 0.6
26/03:52pm -1.1 -8.9 -3.6 83 0.8 WNW 28 43 15 23 1011.5 - 0.6
26/03:50pm -1.0 -8.8 -3.7 82 0.9 WNW 28 43 15 23 1011.3 - 0.6
26/03:30pm -1.0 -6.8 -1.8 94 0.2 NW 19 30 10 16 1011.2 - 0.6
26/03:00pm -0.7 -8.0 -3.1 84 0.8 WNW 26 41 14 22 1011.0 1014.9 0.6
26/02:58pm -0.6 -8.3 -3.1 83 0.9 WNW 28 41 15 22 1011.0 - 0.6
26/02:57pm -0.6 -8.3 -3.3 82 0.9 WNW 28 41 15 22 1010.9 - 0.6
26/02:36pm -0.1 -8.2 -3.0 81 1.1 WNW 30 50 16 27 1010.4 - 0.6
26/02:30pm 0.0 -8.1 -3.4 78 1.2 WNW 30 50 16 27 1010.5 - 0.6
26/02:15pm 0.5 -9.0 -3.8 73 1.6 WNW 37 56 20 30 1010.3 - 0.6
26/02:03pm 0.3 -7.3 -2.1 84 0.9 WNW 28 46 15 25 1010.1 - 0.6
26/02:00pm 0.4 -6.4 -1.7 86 0.8 WNW 24 46 13 25 1010.1 - 0.6
26/01:30pm -0.3 -7.5 -2.3 86 0.7 NW 26 41 14 22 1009.6 - 0.4
26/01:26pm 0.0 -7.2 -2.2 85 0.8 NW 26 44 14 24 1009.5 - 0.4
26/01:07pm 0.4 -7.6 -2.3 82 1.0 WNW 30 54 16 29 1009.6 - 0.4
26/01:03pm 0.0 -8.4 -2.7 82 1.0 WNW 32 54 17 29 1009.6 - 0.4
26/01:00pm 0.0 -8.5 -2.9 81 1.1 WNW 32 46 17 25 1009.4 - 0.4
26/12:37pm -1.1 -10.8 -2.1 93 0.3 NW 39 57 21 31 1009.6 - 0.4
26/12:30pm -0.8 -10.9 -2.7 87 0.7 NW 41 57 22 31 1009.5 - 0.4
26/12:24pm -0.4 -9.4 -3.1 82 1.0 WNW 35 56 19 30 1009.5 - 0.4
26/12:22pm -0.1 -8.8 -3.3 79 1.2 WNW 33 48 18 26 1009.7 - 0.4
26/12:00pm 0.9 -9.2 -2.7 77 1.4 WNW 41 63 22 34 1010.0 1013.9 0.4
26/11:30am 1.0 -8.0 -2.7 76 1.4 WNW 35 54 19 29 1010.0 - 0.4
26/11:04am 0.4 -10.3 -2.6 80 1.1 WNW 44 72 24 39 1010.0 - 0.4
26/11:00am 0.4 -9.7 -2.5 81 1.1 WNW 41 72 22 39 1009.8 - 0.4
26/10:33am 0.7 -8.7 0.1 96 0.2 WNW 39 57 21 31 1009.6 - 0.4
26/10:30am 0.6 -8.4 0.3 98 0.1 WNW 37 52 20 28 1009.6 - 0.2
26/10:00am 0.1 -8.3 -0.7 94 0.3 NW 33 52 18 28 1009.5 - 0.2
26/09:30am 0.0 -9.1 -0.7 95 0.3 WNW 37 57 20 31 1009.3 - 0.2
26/09:00am 0.4 -9.9 0.0 97 0.2 WNW 44 67 24 36 1008.9 1012.8 8.8
26/08:44am 0.4 -9.4 -0.3 95 0.3 WNW 41 61 22 33 1009.3 - 8.6
26/08:30am 1.3 -7.3 0.3 93 0.4 WNW 35 50 19 27 1008.7 - 8.4
26/08:25am 1.6 -7.3 0.6 93 0.4 WNW 37 56 20 30 1008.7 - 8.2
26/08:22am 1.8 -7.5 0.6 92 0.5 WNW 39 56 21 30 1008.6 - 8.2
26/08:21am 1.9 -7.4 0.7 92 0.5 WNW 39 56 21 30 1008.5 - 8.0
26/08:08am 2.2 -6.6 1.5 95 0.3 NW 37 52 20 28 1008.3 - 8.0
26/08:00am 2.2 -6.6 1.3 94 0.4 NW 37 48 20 26 1008.0 - 7.8
26/07:44am 2.2 -7.0 1.3 94 0.4 NW 39 57 21 31 1007.9 - 7.8

Other Formats:

Comma delimited format used in spreadsheet applications
http://www.bom.gov.au/fwo/IDV60801/IDV60801.94905.axf

JavaScript Object Notation format (JSON) in row-major order
http://www.bom.gov.au/fwo/IDV60801/IDV60801.94905.json